Time;durP1;ratioP1;P1;durP2;ratioP2;P2;SDS_P1;SDS_P2;PMS_P1;PMS_P2;Temp;Humidity;BMP_temperature;BMP_pressure;BME280_temperature;BME280_humidity;BME280_pressure;Samples;Min_cycle;Max_cycle;Signal;HPM_P1;HPM_P2
2021/08/08 00:01:21;;;;;;;;;36.67;33.00;;;;;;;;8682437;41;10154;-59
2021/08/08 00:07:23;;;;;;;;;36.33;33.00;;;;;;;;8683103;41;10246;-59
2021/08/08 00:13:26;;;;;;;;;36.67;34.33;;;;;;;;8682340;41;10292;-58
2021/08/08 00:19:28;;;;;;;;;40.00;33.33;;;;;;;;8682327;41;10237;-60
2021/08/08 00:25:31;;;;;;;;;41.33;37.33;;;;;;;;8681951;41;10185;-60
2021/08/08 00:31:33;;;;;;;;;40.00;33.67;;;;;;;;8681233;41;10369;-58
2021/08/08 00:37:43;;;;;;;;;33.67;29.33;;;;;;;;8678997;41;10169;-59
2021/08/08 00:43:48;;;;;;;;;29.33;26.33;;;;;;;;8676939;41;10168;-58
2021/08/08 00:49:50;;;;;;;;;21.00;20.67;;;;;;;;8677246;41;10152;-60
2021/08/08 00:55:52;;;;;;;;;26.33;26.33;;;;;;;;8676082;41;10150;-60
2021/08/08 01:01:55;;;;;;;;;29.67;23.33;;;;;;;;8677128;41;10184;-59
2021/08/08 01:08:04;;;;;;;;;27.33;25.00;;;;;;;;8677057;41;10460;-59
2021/08/08 01:14:08;;;;;;;;;26.00;25.00;;;;;;;;8677349;41;10151;-60
2021/08/08 01:20:20;;;;;;;;;21.33;21.33;;;;;;;;8675779;41;10226;-59
2021/08/08 01:26:31;;;;;;;;;24.67;23.00;;;;;;;;8676955;41;10358;-58
2021/08/08 01:32:35;;;;;;;;;21.00;20.33;;;;;;;;8676636;41;10107;-59
2021/08/08 01:39:02;;;;;;;;;24.67;23.00;;;;;;;;8674824;41;10146;-59
2021/08/08 01:45:06;;;;;;;;;27.33;24.33;;;;;;;;8675720;41;10154;-60
2021/08/08 01:51:11;;;;;;;;;26.00;23.67;;;;;;;;8675642;41;10715;-59
2021/08/08 01:57:14;;;;;;;;;23.33;23.33;;;;;;;;8676103;41;10166;-60
2021/08/08 02:03:20;;;;;;;;;21.33;20.33;;;;;;;;8675307;41;10150;-58
2021/08/08 02:09:29;;;;;;;;;23.00;18.67;;;;;;;;8674877;41;10945;-59
2021/08/08 02:15:31;;;;;;;;;18.00;18.00;;;;;;;;8674815;41;10242;-59
2021/08/08 02:21:38;;;;;;;;;18.00;17.50;;;;;;;;8675891;41;10921;-59
2021/08/08 02:27:41;;;;;;;;;21.67;21.33;;;;;;;;8676294;41;10165;-59
2021/08/08 02:33:58;;;;;;;;;23.00;22.00;;;;;;;;8675626;41;10135;-59
2021/08/08 02:40:00;;;;;;;;;19.33;17.33;;;;;;;;8675900;41;10349;-59
2021/08/08 02:46:03;;;;;;;;;22.33;20.67;;;;;;;;8675952;41;10131;-60
2021/08/08 02:52:05;;;;;;;;;21.67;19.67;;;;;;;;8673932;41;10099;-60
2021/08/08 02:58:08;;;;;;;;;18.33;17.33;;;;;;;;8675350;41;10244;-60
2021/08/08 03:04:13;;;;;;;;;15.33;15.33;;;;;;;;8674819;41;10133;-57
2021/08/08 03:10:16;;;;;;;;;20.33;18.00;;;;;;;;8673951;41;10204;-59
2021/08/08 03:16:18;;;;;;;;;25.00;20.67;;;;;;;;8675416;41;10153;-60
2021/08/08 03:22:20;;;;;;;;;17.33;14.33;;;;;;;;8674334;41;11397;-58
2021/08/08 03:28:23;;;;;;;;;18.00;17.00;;;;;;;;8674841;41;10157;-58
2021/08/08 03:34:25;;;;;;;;;22.67;20.33;;;;;;;;8673241;41;10254;-59
2021/08/08 03:40:28;;;;;;;;;19.00;15.33;;;;;;;;8674919;41;10284;-59
2021/08/08 03:46:30;;;;;;;;;20.33;19.00;;;;;;;;8675241;41;10176;-59
2021/08/08 03:52:34;;;;;;;;;16.33;16.33;;;;;;;;8672924;41;10175;-59
2021/08/08 03:58:37;;;;;;;;;21.67;19.33;;;;;;;;8673212;41;10383;-60
2021/08/08 04:04:40;;;;;;;;;17.33;17.33;;;;;;;;8673605;41;10379;-59
2021/08/08 04:10:43;;;;;;;;;17.67;15.67;;;;;;;;8674527;41;11481;-59
2021/08/08 04:16:45;;;;;;;;;14.00;14.00;;;;;;;;8676542;41;10794;-59
2021/08/08 04:22:47;;;;;;;;;17.67;15.33;;;;;;;;8676076;41;10082;-60
2021/08/08 04:28:50;;;;;;;;;16.33;14.33;;;;;;;;8675495;41;10162;-59
2021/08/08 04:34:53;;;;;;;;;15.33;14.67;;;;;;;;8676668;41;10860;-60
2021/08/08 04:40:56;;;;;;;;;14.00;14.00;;;;;;;;8677622;41;10299;-59
2021/08/08 04:46:58;;;;;;;;;17.00;16.67;;;;;;;;8675784;41;10160;-59
2021/08/08 04:53:01;;;;;;;;;15.67;14.33;;;;;;;;8675439;41;10521;-59
2021/08/08 04:59:05;;;;;;;;;14.00;12.00;;;;;;;;8677243;41;10884;-59
2021/08/08 05:05:08;;;;;;;;;14.75;14.75;;;;;;;;8677080;41;10961;-58
2021/08/08 05:11:16;;;;;;;;;12.20;11.00;;;;;;;;7679765;41;10001732;-59
2021/08/08 05:17:23;;;;;;;;;19.00;15.67;;;;;;;;8676086;41;10932;-58
2021/08/08 05:23:27;;;;;;;;;18.67;18.00;;;;;;;;8675057;41;10704;-58
2021/08/08 05:29:29;;;;;;;;;15.00;12.50;;;;;;;;8676610;41;10933;-60
2021/08/08 05:35:31;;;;;;;;;15.75;14.50;;;;;;;;8675388;41;11133;-61
2021/08/08 05:41:34;;;;;;;;;15.00;14.33;;;;;;;;8675389;41;10602;-59
2021/08/08 05:47:36;;;;;;;;;12.00;10.50;;;;;;;;8683031;41;11518;-60
2021/08/08 05:53:38;;;;;;;;;14.50;13.00;;;;;;;;8674856;41;10812;-59
2021/08/08 05:59:40;;;;;;;;;12.00;12.00;;;;;;;;8676413;41;10768;-59
2021/08/08 06:05:45;;;;;;;;;11.00;11.00;;;;;;;;8675944;41;10716;-59
2021/08/08 06:11:48;;;;;;;;;9.50;9.50;;;;;;;;8675873;41;10674;-60
2021/08/08 06:17:51;;;;;;;;;10.00;9.50;;;;;;;;8675849;41;11412;-59
2021/08/08 06:23:55;;;;;;;;;13.25;11.25;;;;;;;;8674379;41;10496;-60
2021/08/08 06:29:57;;;;;;;;;12.00;9.75;;;;;;;;8667715;41;10541;-60
2021/08/08 06:36:00;;;;;;;;;12.00;10.00;;;;;;;;8673652;41;10534;-59
2021/08/08 06:42:02;;;;;;;;;11.25;11.25;;;;;;;;8675749;41;10561;-59
2021/08/08 06:48:09;;;;;;;;;7.75;7.75;;;;;;;;8674492;41;10375;-59
2021/08/08 06:54:13;;;;;;;;;9.50;8.00;;;;;;;;8674460;41;10475;-58
2021/08/08 07:00:16;;;;;;;;;5.25;5.25;;;;;;;;8674844;41;10414;-59
2021/08/08 07:06:35;;;;;;;;;9.25;8.00;;;;;;;;8673772;41;10557;-60
2021/08/08 07:12:38;;;;;;;;;9.75;8.75;;;;;;;;8666741;41;10492;-59
2021/08/08 07:18:44;;;;;;;;;9.75;8.50;;;;;;;;8674654;41;11028;-59
2021/08/08 07:24:51;;;;;;;;;11.50;9.75;;;;;;;;8673642;41;10710;-59
2021/08/08 07:30:56;;;;;;;;;9.25;6.25;;;;;;;;8673762;41;10495;-59
2021/08/08 07:36:59;;;;;;;;;7.50;7.00;;;;;;;;8673313;41;10739;-59
2021/08/08 07:43:01;;;;;;;;;8.00;8.00;;;;;;;;8674077;41;10735;-59
2021/08/08 07:49:03;;;;;;;;;6.50;6.50;;;;;;;;8677000;41;10744;-60
2021/08/08 07:55:07;;;;;;;;;8.75;8.00;;;;;;;;8677872;41;10531;-60
2021/08/08 08:01:11;;;;;;;;;7.75;7.00;;;;;;;;8669006;41;10483;-60
2021/08/08 08:07:14;;;;;;;;;12.00;8.00;;;;;;;;8679289;41;10739;-58
2021/08/08 08:13:17;;;;;;;;;7.50;6.50;;;;;;;;8677869;41;10456;-61
2021/08/08 08:19:19;;;;;;;;;8.00;8.00;;;;;;;;8677497;41;10663;-61
2021/08/08 08:25:22;;;;;;;;;8.00;8.00;;;;;;;;8677973;41;10450;-62
2021/08/08 08:31:25;;;;;;;;;8.25;6.75;;;;;;;;8677224;41;10462;-61
2021/08/08 08:37:28;;;;;;;;;10.00;10.00;;;;;;;;8677044;41;10573;-59
2021/08/08 08:43:30;;;;;;;;;7.25;7.25;;;;;;;;8676900;41;10471;-60
2021/08/08 08:49:41;;;;;;;;;8.00;6.50;;;;;;;;8676482;41;10466;-59
2021/08/08 08:55:43;;;;;;;;;6.25;6.00;;;;;;;;8676919;41;11096;-59
2021/08/08 09:01:46;;;;;;;;;6.25;6.25;;;;;;;;8676489;41;10494;-60
2021/08/08 09:07:49;;;;;;;;;7.75;7.00;;;;;;;;8675217;41;10511;-58
2021/08/08 09:13:56;;;;;;;;;7.50;7.50;;;;;;;;8677034;41;10406;-60
2021/08/08 09:20:09;;;;;;;;;7.00;7.00;;;;;;;;8675481;41;11109;-60
2021/08/08 09:26:14;;;;;;;;;8.00;8.00;;;;;;;;8676803;41;10458;-60
2021/08/08 09:32:18;;;;;;;;;10.00;9.25;;;;;;;;8676172;41;10658;-59
2021/08/08 09:38:22;;;;;;;;;9.00;9.00;;;;;;;;8675222;41;10629;-59
2021/08/08 09:44:24;;;;;;;;;7.00;7.00;;;;;;;;8677246;41;10541;-59
2021/08/08 09:50:29;;;;;;;;;7.00;5.00;;;;;;;;8675064;41;10481;-60
2021/08/08 09:56:31;;;;;;;;;10.25;9.00;;;;;;;;8675324;41;10505;-59
2021/08/08 10:02:33;;;;;;;;;9.00;8.00;;;;;;;;8676117;41;10496;-59
2021/08/08 10:08:36;;;;;;;;;8.00;8.00;;;;;;;;8676546;41;10535;-58
2021/08/08 10:14:38;;;;;;;;;9.00;8.25;;;;;;;;8676921;41;10641;-59
2021/08/08 10:20:42;;;;;;;;;6.75;6.75;;;;;;;;8676327;41;10642;-60
2021/08/08 10:26:44;;;;;;;;;7.00;7.00;;;;;;;;8675733;41;10515;-60
2021/08/08 10:32:46;;;;;;;;;13.00;9.25;;;;;;;;8675149;41;10521;-59
2021/08/08 10:38:50;;;;;;;;;5.75;5.00;;;;;;;;8675698;41;11013;-59
2021/08/08 10:44:54;;;;;;;;;9.00;7.25;;;;;;;;8675550;41;10667;-61
2021/08/08 10:50:56;;;;;;;;;9.00;8.00;;;;;;;;8675155;41;10654;-60
2021/08/08 10:57:09;;;;;;;;;8.00;8.00;;;;;;;;8676047;41;11322;-60
2021/08/08 11:03:15;;;;;;;;;7.75;7.25;;;;;;;;8676940;41;10472;-59
2021/08/08 11:09:18;;;;;;;;;8.75;8.50;;;;;;;;8675106;41;11015;-60
2021/08/08 11:15:32;;;;;;;;;9.00;9.00;;;;;;;;8673879;41;10491;-59
2021/08/08 11:21:37;;;;;;;;;5.75;5.50;;;;;;;;8674682;41;10558;-59
2021/08/08 11:27:42;;;;;;;;;7.50;7.50;;;;;;;;8675512;41;10759;-60
2021/08/08 11:33:44;;;;;;;;;9.00;8.50;;;;;;;;8675937;41;10691;-59
2021/08/08 11:39:46;;;;;;;;;6.50;6.50;;;;;;;;8674856;41;11324;-59
2021/08/08 11:45:49;;;;;;;;;10.50;8.00;;;;;;;;8674176;41;10660;-59
2021/08/08 11:51:59;;;;;;;;;7.25;7.25;;;;;;;;8674294;41;10953;-59
2021/08/08 11:58:05;;;;;;;;;5.75;5.75;;;;;;;;8673844;41;10471;-58
2021/08/08 12:04:08;;;;;;;;;7.50;7.50;;;;;;;;8673227;41;10514;-60
2021/08/08 12:10:10;;;;;;;;;5.25;5.25;;;;;;;;8674010;41;10499;-59
2021/08/08 12:16:15;;;;;;;;;7.50;7.00;;;;;;;;8674238;40;10677;-59
2021/08/08 12:22:20;;;;;;;;;8.75;6.50;;;;;;;;8673902;41;10714;-57
2021/08/08 12:28:23;;;;;;;;;9.00;8.00;;;;;;;;8673453;41;10734;-60
2021/08/08 12:34:29;;;;;;;;;7.50;7.50;;;;;;;;8676263;41;10610;-60
2021/08/08 12:40:47;;;;;;;;;8.00;6.00;;;;;;;;8678267;41;11093;-60
2021/08/08 12:46:59;;;;;;;;;5.75;5.25;;;;;;;;8677012;41;10512;-60
2021/08/08 12:53:06;;;;;;;;;5.00;5.00;;;;;;;;8677156;41;11560;-59
2021/08/08 12:59:08;;;;;;;;;7.75;7.75;;;;;;;;8676861;41;10459;-61
2021/08/08 13:05:10;;;;;;;;;6.50;5.50;;;;;;;;8436680;41;9999923;-60
2021/08/08 13:11:13;;;;;;;;;9.00;8.00;;;;;;;;8676904;41;11113;-60
2021/08/08 13:17:16;;;;;;;;;4.00;4.00;;;;;;;;8676648;41;10563;-59
2021/08/08 13:23:18;;;;;;;;;13.25;11.50;;;;;;;;8191353;41;10000618;-59
2021/08/08 13:29:21;;;;;;;;;4.00;4.00;;;;;;;;8675513;41;11254;-59
2021/08/08 13:35:23;;;;;;;;;2.00;2.00;;;;;;;;8675894;41;10463;-60
2021/08/08 13:41:25;;;;;;;;;7.50;5.50;;;;;;;;8675993;41;10680;-59
2021/08/08 13:47:27;;;;;;;;;7.00;7.00;;;;;;;;8675484;41;10684;-59
2021/08/08 13:53:29;;;;;;;;;8.00;8.00;;;;;;;;8667548;41;11397;-59
2021/08/08 13:59:31;;;;;;;;;9.50;9.50;;;;;;;;8676487;41;11098;-61
2021/08/08 14:05:33;;;;;;;;;10.00;10.00;;;;;;;;8675838;41;10604;-59
2021/08/08 14:11:36;;;;;;;;;9.50;7.50;;;;;;;;8676101;41;10523;-59
2021/08/08 14:17:40;;;;;;;;;7.50;7.50;;;;;;;;8200065;41;10000723;-59
2021/08/08 14:23:42;;;;;;;;;7.75;7.75;;;;;;;;8675738;41;10510;-59
2021/08/08 14:29:44;;;;;;;;;8.50;8.50;;;;;;;;8675716;41;10817;-59
2021/08/08 14:35:47;;;;;;;;;8.75;8.75;;;;;;;;8675734;41;10649;-59
2021/08/08 14:41:49;;;;;;;;;7.25;7.25;;;;;;;;8675709;41;11214;-60
2021/08/08 14:47:51;;;;;;;;;9.00;7.50;;;;;;;;8675045;41;10748;-59
2021/08/08 14:53:54;;;;;;;;;5.00;5.00;;;;;;;;8675316;41;10418;-60
2021/08/08 14:59:56;;;;;;;;;8.25;7.25;;;;;;;;8675444;41;10457;-60
2021/08/08 15:05:58;;;;;;;;;7.50;7.50;;;;;;;;8675764;41;10593;-59
2021/08/08 15:12:01;;;;;;;;;7.75;7.75;;;;;;;;8676204;41;10736;-60
2021/08/08 15:18:04;;;;;;;;;8.50;7.00;;;;;;;;8674907;41;10712;-60
2021/08/08 15:24:06;;;;;;;;;6.50;6.50;;;;;;;;8675165;41;11279;-60
2021/08/08 15:30:09;;;;;;;;;6.25;5.75;;;;;;;;8682058;41;10712;-60
2021/08/08 15:36:11;;;;;;;;;7.00;7.00;;;;;;;;8675469;41;10498;-60
2021/08/08 15:42:13;;;;;;;;;5.00;5.00;;;;;;;;8674023;41;10386;-60
2021/08/08 15:48:15;;;;;;;;;7.00;7.00;;;;;;;;8673872;41;10433;-59
2021/08/08 15:54:17;;;;;;;;;9.50;8.25;;;;;;;;8673019;41;10774;-60
2021/08/08 16:00:19;;;;;;;;;7.75;7.50;;;;;;;;8675001;41;10935;-59
2021/08/08 16:06:21;;;;;;;;;8.00;8.00;;;;;;;;8676051;41;10657;-59
2021/08/08 16:12:24;;;;;;;;;8.50;7.00;;;;;;;;8678550;41;10433;-60
2021/08/08 16:18:26;;;;;;;;;5.00;5.00;;;;;;;;8678029;41;10547;-60
2021/08/08 16:24:28;;;;;;;;;8.50;7.50;;;;;;;;8677412;41;10692;-60
2021/08/08 16:30:30;;;;;;;;;9.50;9.50;;;;;;;;8684030;41;10518;-59
2021/08/08 16:36:32;;;;;;;;;10.00;8.00;;;;;;;;8677147;41;11238;-59
2021/08/08 16:42:36;;;;;;;;;9.50;9.50;;;;;;;;8678095;41;10508;-59
2021/08/08 16:48:38;;;;;;;;;10.25;9.50;;;;;;;;8676465;41;10537;-60
2021/08/08 16:54:41;;;;;;;;;10.75;10.75;;;;;;;;8677332;41;10741;-60
2021/08/08 17:00:43;;;;;;;;;10.00;10.00;;;;;;;;8675697;41;11080;-59
2021/08/08 17:06:46;;;;;;;;;10.25;10.25;;;;;;;;8678073;41;10580;-59
2021/08/08 17:12:51;;;;;;;;;14.00;14.00;;;;;;;;8677328;41;10569;-60
2021/08/08 17:18:54;;;;;;;;;14.75;13.50;;;;;;;;8675860;41;10575;-60
2021/08/08 17:24:56;;;;;;;;;18.00;16.75;;;;;;;;8676836;41;10669;-59
2021/08/08 17:30:59;;;;;;;;;18.00;14.25;;;;;;;;8683874;41;10994;-59
2021/08/08 17:37:01;;;;;;;;;18.00;15.00;;;;;;;;8676236;41;11193;-59
2021/08/08 17:43:03;;;;;;;;;18.00;18.00;;;;;;;;8683155;41;11027;-60
2021/08/08 17:49:05;;;;;;;;;16.25;15.25;;;;;;;;8676074;41;11102;-60
2021/08/08 17:55:08;;;;;;;;;17.75;17.75;;;;;;;;8676280;41;10669;-60
2021/08/08 18:01:13;;;;;;;;;19.50;19.50;;;;;;;;8675996;41;10632;-60
2021/08/08 18:07:17;;;;;;;;;19.75;17.25;;;;;;;;8676921;41;10811;-59
2021/08/08 18:13:22;;;;;;;;;15.00;14.75;;;;;;;;8675399;41;11403;-59
2021/08/08 18:19:24;;;;;;;;;20.00;19.00;;;;;;;;8676606;41;10772;-61
2021/08/08 18:25:26;;;;;;;;;20.25;16.00;;;;;;;;8676529;41;10743;-59
2021/08/08 18:31:28;;;;;;;;;16.00;15.00;;;;;;;;8674868;41;10784;-60
2021/08/08 18:37:31;;;;;;;;;22.00;20.75;;;;;;;;8676599;41;10676;-60
2021/08/08 18:43:34;;;;;;;;;27.50;24.75;;;;;;;;8675785;41;10735;-60
2021/08/08 18:49:36;;;;;;;;;18.75;16.50;;;;;;;;8675942;41;10566;-59
2021/08/08 18:55:38;;;;;;;;;16.75;14.75;;;;;;;;8675974;41;10709;-59
2021/08/08 19:01:40;;;;;;;;;19.00;16.75;;;;;;;;8674690;41;10585;-59
2021/08/08 19:07:42;;;;;;;;;15.50;15.50;;;;;;;;8676072;41;10665;-59
2021/08/08 19:13:44;;;;;;;;;19.25;19.25;;;;;;;;8674998;41;10595;-59
2021/08/08 19:19:46;;;;;;;;;23.25;21.75;;;;;;;;8675420;41;10951;-60
2021/08/08 19:25:49;;;;;;;;;20.00;19.25;;;;;;;;8675116;41;10575;-59
2021/08/08 19:31:51;;;;;;;;;23.50;20.00;;;;;;;;8673260;41;10593;-60
2021/08/08 19:37:54;;;;;;;;;20.50;19.25;;;;;;;;8675330;41;10661;-60
2021/08/08 19:43:57;;;;;;;;;22.25;22.25;;;;;;;;8678375;41;10622;-59
2021/08/08 19:49:59;;;;;;;;;21.25;18.00;;;;;;;;8676256;41;10716;-60
2021/08/08 19:56:02;;;;;;;;;22.00;21.75;;;;;;;;8678049;41;10665;-58
2021/08/08 20:02:04;;;;;;;;;25.00;22.25;;;;;;;;8677121;41;10702;-59
2021/08/08 20:08:07;;;;;;;;;16.75;16.75;;;;;;;;8678984;41;11350;-60
2021/08/08 20:14:09;;;;;;;;;24.50;24.00;;;;;;;;8677462;41;10914;-60
2021/08/08 20:20:16;;;;;;;;;16.50;15.50;;;;;;;;8676781;41;10636;-59
2021/08/08 20:26:18;;;;;;;;;17.50;16.00;;;;;;;;8685566;41;10663;-59
2021/08/08 20:32:20;;;;;;;;;20.00;18.25;;;;;;;;8677039;41;10598;-60
2021/08/08 20:38:22;;;;;;;;;18.75;17.50;;;;;;;;8678497;41;11024;-58
2021/08/08 20:44:24;;;;;;;;;19.00;15.00;;;;;;;;8677896;41;10975;-59
2021/08/08 20:50:26;;;;;;;;;22.00;20.75;;;;;;;;8676783;41;11030;-59
2021/08/08 20:56:31;;;;;;;;;20.75;20.00;;;;;;;;8676523;41;10824;-59
2021/08/08 21:02:33;;;;;;;;;24.50;20.00;;;;;;;;8676918;41;10722;-59
2021/08/08 21:08:36;;;;;;;;;22.50;21.25;;;;;;;;8676923;41;10603;-59
2021/08/08 21:14:39;;;;;;;;;19.75;19.75;;;;;;;;8677047;41;10611;-60
2021/08/08 21:20:41;;;;;;;;;26.00;23.00;;;;;;;;8678410;41;10691;-59
2021/08/08 21:26:43;;;;;;;;;19.75;18.75;;;;;;;;8677570;41;10563;-60
2021/08/08 21:32:45;;;;;;;;;17.50;17.25;;;;;;;;8676176;41;10931;-60
2021/08/08 21:38:51;;;;;;;;;15.50;15.50;;;;;;;;8677451;41;10690;-60
2021/08/08 21:44:53;;;;;;;;;18.00;16.50;;;;;;;;8677089;41;10630;-58
2021/08/08 21:50:55;;;;;;;;;17.75;16.50;;;;;;;;8677221;41;10938;-59
2021/08/08 21:56:57;;;;;;;;;19.75;18.75;;;;;;;;8677191;41;10784;-59
2021/08/08 22:02:59;;;;;;;;;20.25;18.75;;;;;;;;8675017;41;10606;-60
2021/08/08 22:09:02;;;;;;;;;19.00;18.75;;;;;;;;8676422;41;10726;-62
2021/08/08 22:15:05;;;;;;;;;18.00;17.50;;;;;;;;8675890;41;10684;-60
2021/08/08 22:21:08;;;;;;;;;21.50;20.00;;;;;;;;8676129;41;11624;-58
2021/08/08 22:27:11;;;;;;;;;21.50;20.25;;;;;;;;8677437;41;10789;-60
2021/08/08 22:33:13;;;;;;;;;27.00;23.50;;;;;;;;8675571;41;10823;-59
2021/08/08 22:39:15;;;;;;;;;20.75;18.00;;;;;;;;8678093;41;10754;-60
2021/08/08 22:45:18;;;;;;;;;25.25;22.75;;;;;;;;8675615;41;10945;-59
2021/08/08 22:51:23;;;;;;;;;27.25;25.25;;;;;;;;8676091;41;11275;-59
2021/08/08 22:57:25;;;;;;;;;29.25;29.25;;;;;;;;8676471;41;11180;-59
2021/08/08 23:03:27;;;;;;;;;31.50;30.50;;;;;;;;8675858;41;10987;-58
2021/08/08 23:09:30;;;;;;;;;37.75;32.75;;;;;;;;8675783;41;11156;-58
2021/08/08 23:15:32;;;;;;;;;33.00;31.67;;;;;;;;8676308;41;10592;-59
2021/08/08 23:21:35;;;;;;;;;32.33;29.67;;;;;;;;8675628;41;10621;-59
2021/08/08 23:27:38;;;;;;;;;29.67;29.67;;;;;;;;8674818;41;10650;-59
2021/08/08 23:33:40;;;;;;;;;34.33;32.33;;;;;;;;8674121;41;11312;-58
2021/08/08 23:39:42;;;;;;;;;30.67;29.33;;;;;;;;8675641;41;11036;-60
2021/08/08 23:45:44;;;;;;;;;29.33;28.00;;;;;;;;8675655;41;10973;-59
2021/08/08 23:51:46;;;;;;;;;29.00;28.00;;;;;;;;8673933;41;10126;-59
2021/08/08 23:57:49;;;;;;;;;30.33;28.33;;;;;;;;8675378;41;11121;-58
